createdAt,value
2019-03-29T00:01:32.428Z,52.41
2019-03-29T00:04:19.964Z,52.68
2019-03-29T00:07:08.255Z,52.60
2019-03-29T00:09:56.592Z,52.72
2019-03-29T00:12:44.967Z,52.74
2019-03-29T00:15:33.950Z,52.55
2019-03-29T00:18:22.149Z,52.64
2019-03-29T00:21:10.279Z,52.76
2019-03-29T00:24:06.614Z,52.73
2019-03-29T00:26:48.377Z,53.13
2019-03-29T00:29:36.486Z,53.49
2019-03-29T00:32:24.294Z,53.06
2019-03-29T00:35:12.179Z,53.31
2019-03-29T00:38:00.362Z,53.39
2019-03-29T00:40:48.358Z,53.74
2019-03-29T00:43:36.070Z,54.03
2019-03-29T00:46:24.430Z,54.29
2019-03-29T00:49:12.807Z,54.54
2019-03-29T00:52:00.805Z,54.71
2019-03-29T00:54:48.669Z,55.02
2019-03-29T00:57:37.334Z,55.47
2019-03-29T01:00:25.837Z,55.25
2019-03-29T01:03:14.175Z,55.31
2019-03-29T01:06:02.144Z,55.29
2019-03-29T01:08:50.129Z,55.40
2019-03-29T01:11:38.189Z,55.14
2019-03-29T01:14:26.688Z,55.27
2019-03-29T01:17:14.982Z,55.26
2019-03-29T01:20:03.210Z,55.40
2019-03-29T01:22:51.073Z,55.44
2019-03-29T01:25:39.426Z,55.56
2019-03-29T01:28:27.207Z,55.89
2019-03-29T01:31:15.171Z,56.01
2019-03-29T01:34:03.094Z,56.39
2019-03-29T01:36:51.320Z,56.45
2019-03-29T01:39:39.356Z,56.46
2019-03-29T01:42:27.309Z,56.52
2019-03-29T01:45:15.551Z,56.62
2019-03-29T01:48:03.735Z,56.87
2019-03-29T01:50:51.953Z,56.77
2019-03-29T01:53:39.938Z,56.76
2019-03-29T01:56:27.998Z,57.26
2019-03-29T01:59:16.974Z,57.27
2019-03-29T02:02:05.127Z,57.29
2019-03-29T02:04:53.195Z,57.33
2019-03-29T02:07:40.987Z,57.23
2019-03-29T02:10:29.031Z,57.07
2019-03-29T02:13:16.883Z,57.06
2019-03-29T02:16:04.829Z,57.19
2019-03-29T02:18:52.745Z,57.08
2019-03-29T02:21:41.099Z,57.13
2019-03-29T02:24:28.948Z,57.22
2019-03-29T02:27:17.135Z,57.71
2019-03-29T02:30:05.692Z,57.64
2019-03-29T02:32:53.371Z,57.52
2019-03-29T02:35:41.840Z,57.57
2019-03-29T02:38:30.333Z,57.85
2019-03-29T02:41:19.243Z,58.22
2019-03-29T02:44:07.932Z,58.14
2019-03-29T02:46:56.368Z,58.10
2019-03-29T02:49:44.656Z,58.34
2019-03-29T02:52:32.604Z,58.35
2019-03-29T02:55:20.584Z,58.85
2019-03-29T02:58:08.584Z,58.48
2019-03-29T03:00:56.793Z,58.95
2019-03-29T03:03:45.253Z,58.68
2019-03-29T03:06:32.999Z,58.59
2019-03-29T03:09:21.246Z,58.95
2019-03-29T03:12:09.408Z,58.81
2019-03-29T03:14:57.630Z,58.95
2019-03-29T03:17:45.612Z,58.63
2019-03-29T03:20:33.629Z,58.58
2019-03-29T03:23:21.767Z,58.68
2019-03-29T03:26:10.129Z,58.93
2019-03-29T03:28:58.242Z,59.30
2019-03-29T03:31:46.538Z,59.11
2019-03-29T03:34:34.862Z,59.05
2019-03-29T03:37:23.132Z,59.22
2019-03-29T03:40:11.375Z,59.19
2019-03-29T03:42:59.608Z,59.33
2019-03-29T03:45:47.552Z,59.01
2019-03-29T03:48:35.382Z,59.16
2019-03-29T03:51:23.392Z,59.06
2019-03-29T03:54:11.765Z,59.22
2019-03-29T03:57:00.452Z,59.30
2019-03-29T03:59:49.780Z,59.58
2019-03-29T04:02:37.788Z,59.65
2019-03-29T04:05:25.695Z,60.02
2019-03-29T04:08:13.705Z,60.00
2019-03-29T04:11:01.863Z,60.26
2019-03-29T04:13:49.863Z,60.12
2019-03-29T04:16:37.996Z,60.33
2019-03-29T04:19:26.067Z,60.41
2019-03-29T04:22:14.109Z,60.57
2019-03-29T04:25:01.768Z,60.63
2019-03-29T04:27:49.410Z,60.64
2019-03-29T04:30:37.248Z,60.82
2019-03-29T04:33:25.234Z,60.89
2019-03-29T04:36:12.834Z,61.21
2019-03-29T04:39:00.381Z,61.00
2019-03-29T04:41:48.337Z,61.01
2019-03-29T04:44:36.444Z,60.86
2019-03-29T04:47:24.635Z,61.00
2019-03-29T04:50:12.712Z,60.92
2019-03-29T04:53:00.826Z,61.14
2019-03-29T04:55:49.044Z,60.91
2019-03-29T04:58:37.577Z,61.36
2019-03-29T05:01:25.835Z,61.22
2019-03-29T05:04:13.731Z,61.29
2019-03-29T05:07:01.925Z,61.56
2019-03-29T05:09:49.993Z,61.60
2019-03-29T05:12:38.303Z,61.27
2019-03-29T05:15:26.475Z,61.55
2019-03-29T05:18:14.307Z,61.30
2019-03-29T05:21:02.549Z,61.44
2019-03-29T05:23:51.193Z,61.47
2019-03-29T05:26:39.227Z,61.19
2019-03-29T05:29:27.281Z,61.45
2019-03-29T05:32:15.366Z,61.72
2019-03-29T05:35:03.615Z,61.57
2019-03-29T05:37:51.570Z,61.44
2019-03-29T05:40:39.357Z,61.39
2019-03-29T05:43:27.448Z,61.36
2019-03-29T05:46:15.370Z,61.46
2019-03-29T05:49:03.489Z,60.50
2019-03-29T05:51:52.215Z,59.04
2019-03-29T05:54:40.595Z,57.59
2019-03-29T05:57:28.518Z,55.63
2019-03-29T06:00:19.310Z,53.78
2019-03-29T06:03:09.997Z,53.92
2019-03-29T06:05:57.108Z,53.96
2019-03-29T06:08:45.312Z,53.66
2019-03-29T06:11:33.612Z,53.08
2019-03-29T06:14:21.900Z,52.32
2019-03-29T06:17:10.084Z,52.00
2019-03-29T06:19:58.219Z,52.34
2019-03-29T06:22:46.356Z,51.63
2019-03-29T06:25:35.087Z,49.24
2019-03-29T06:28:29.775Z,47.29
2019-03-29T06:31:16.623Z,48.34
2019-03-29T06:34:04.755Z,48.74
2019-03-29T06:36:53.477Z,48.28
2019-03-29T06:39:41.336Z,48.05
2019-03-29T06:42:29.203Z,48.32
2019-03-29T06:45:17.225Z,48.08
2019-03-29T06:48:05.581Z,47.92
2019-03-29T06:50:54.110Z,46.51
2019-03-29T06:53:42.368Z,45.80
2019-03-29T06:56:30.408Z,45.69
2019-03-29T06:59:18.305Z,45.01
2019-03-29T07:02:06.197Z,44.54
2019-03-29T07:04:54.471Z,42.79
2019-03-29T07:07:44.535Z,41.00
2019-03-29T07:10:32.616Z,41.40
2019-03-29T07:13:20.707Z,40.46
2019-03-29T07:16:09.718Z,39.55
2019-03-29T07:18:57.551Z,39.51
2019-03-29T07:21:45.423Z,38.86
2019-03-29T07:24:33.908Z,36.29
2019-03-29T07:27:22.019Z,35.88
2019-03-29T07:30:10.406Z,36.64
2019-03-29T07:32:58.255Z,36.91
2019-03-29T07:35:46.331Z,37.99
2019-03-29T07:38:34.576Z,36.41
2019-03-29T07:41:31.630Z,37.06
2019-03-29T07:44:12.102Z,36.92
2019-03-29T07:47:00.227Z,36.48
2019-03-29T07:49:48.458Z,36.18
2019-03-29T07:52:36.221Z,36.08
2019-03-29T07:55:24.224Z,36.27
2019-03-29T07:58:11.943Z,36.64
2019-03-29T08:00:59.646Z,35.80
2019-03-29T08:03:51.231Z,36.02
2019-03-29T08:06:39.075Z,36.66
2019-03-29T08:09:27.406Z,36.38
2019-03-29T08:12:16.178Z,35.33
2019-03-29T08:15:04.785Z,36.17
2019-03-29T08:17:52.771Z,37.02
2019-03-29T08:20:44.111Z,36.68
2019-03-29T08:23:30.694Z,36.95
2019-03-29T08:26:19.048Z,36.71
2019-03-29T08:29:07.375Z,37.72
2019-03-29T08:31:55.867Z,37.36
2019-03-29T08:34:43.865Z,38.14
2019-03-29T08:37:31.997Z,39.00
2019-03-29T08:40:19.917Z,39.05
2019-03-29T08:43:08.317Z,38.81
2019-03-29T08:45:57.777Z,39.37
2019-03-29T08:48:46.647Z,39.47
2019-03-29T08:51:34.891Z,38.89
2019-03-29T08:54:23.068Z,39.78
2019-03-29T08:57:11.284Z,37.71
2019-03-29T08:59:58.939Z,37.50
2019-03-29T09:02:46.986Z,39.10
2019-03-29T09:05:35.225Z,41.74
2019-03-29T09:08:23.726Z,40.44
2019-03-29T09:11:11.603Z,40.13
2019-03-29T09:13:59.512Z,39.92
2019-03-29T09:16:47.612Z,40.33
2019-03-29T09:19:35.316Z,40.16
2019-03-29T09:22:23.053Z,40.97
2019-03-29T09:25:11.464Z,39.56
2019-03-29T09:27:59.464Z,38.41
2019-03-29T09:30:47.675Z,37.96
2019-03-29T09:33:36.011Z,38.89
2019-03-29T09:36:24.231Z,37.77
2019-03-29T09:39:12.394Z,37.89
2019-03-29T09:42:00.725Z,37.32
2019-03-29T09:44:48.918Z,39.05
2019-03-29T09:47:40.516Z,39.74
2019-03-29T09:50:27.225Z,39.09
2019-03-29T09:53:15.431Z,38.33
2019-03-29T09:56:03.455Z,38.33
2019-03-29T09:58:51.569Z,38.07
2019-03-29T10:01:39.603Z,37.80
2019-03-29T10:04:27.841Z,38.53
2019-03-29T10:07:16.311Z,38.11
2019-03-29T10:10:04.815Z,37.87
2019-03-29T10:12:52.900Z,38.66
2019-03-29T10:15:41.003Z,37.91
2019-03-29T10:18:28.861Z,38.09
2019-03-29T10:21:17.664Z,37.86
2019-03-29T10:24:05.941Z,38.06
2019-03-29T10:26:53.883Z,37.08
2019-03-29T10:29:42.252Z,37.71
2019-03-29T10:32:30.413Z,37.01
2019-03-29T10:35:18.713Z,37.13
2019-03-29T10:38:06.703Z,36.50
2019-03-29T10:40:56.133Z,36.62
2019-03-29T10:43:44.879Z,36.28
2019-03-29T10:46:33.109Z,36.47
2019-03-29T10:49:21.384Z,36.69
2019-03-29T10:52:09.844Z,35.94
2019-03-29T10:54:58.424Z,36.81
2019-03-29T10:57:46.844Z,36.73
2019-03-29T11:00:36.776Z,36.51
2019-03-29T11:03:24.655Z,37.04
2019-03-29T11:06:12.693Z,36.66
2019-03-29T11:09:00.650Z,35.79
2019-03-29T11:11:49.384Z,36.00
2019-03-29T11:14:37.843Z,35.32
2019-03-29T11:17:25.824Z,36.27
2019-03-29T11:20:14.058Z,35.27
2019-03-29T11:23:02.047Z,35.81
2019-03-29T11:25:50.276Z,36.33
2019-03-29T11:28:38.391Z,36.25
2019-03-29T11:31:27.214Z,36.05
2019-03-29T11:34:15.354Z,35.05
2019-03-29T11:37:03.738Z,35.18
2019-03-29T11:39:51.908Z,34.75
2019-03-29T11:42:39.660Z,34.56
2019-03-29T11:45:27.430Z,34.77
2019-03-29T11:48:15.615Z,34.41
2019-03-29T11:51:03.508Z,34.28
2019-03-29T11:53:51.559Z,33.99
2019-03-29T11:56:39.534Z,34.10
2019-03-29T11:59:28.019Z,34.24
2019-03-29T12:02:30.136Z,34.43
2019-03-29T12:05:08.419Z,33.55
2019-03-29T12:07:56.360Z,33.47
2019-03-29T12:10:44.729Z,33.17
2019-03-29T12:13:40.838Z,32.81
2019-03-29T12:16:23.307Z,32.90
2019-03-29T12:19:11.170Z,32.52
2019-03-29T12:21:59.206Z,32.37
2019-03-29T12:24:47.371Z,32.32
2019-03-29T12:27:35.540Z,32.18
2019-03-29T12:30:31.692Z,32.46
2019-03-29T12:33:13.577Z,31.82
2019-03-29T12:36:01.707Z,31.81
2019-03-29T12:38:49.981Z,32.19
2019-03-29T12:41:37.835Z,32.69
2019-03-29T12:44:25.648Z,32.36
2019-03-29T12:47:13.664Z,32.58
2019-03-29T12:50:01.682Z,32.49
2019-03-29T12:52:50.319Z,32.38
2019-03-29T12:55:39.277Z,31.93
2019-03-29T12:58:26.999Z,32.59
2019-03-29T13:01:14.975Z,32.17
2019-03-29T13:04:02.989Z,31.97
2019-03-29T13:06:50.609Z,31.80
2019-03-29T13:09:39.913Z,31.51
2019-03-29T13:12:27.842Z,31.27
2019-03-29T13:15:15.601Z,31.49
2019-03-29T13:18:03.682Z,31.30
2019-03-29T13:20:51.654Z,31.56
2019-03-29T13:23:39.718Z,31.98
2019-03-29T13:26:28.240Z,31.67
2019-03-29T13:29:16.281Z,31.01
2019-03-29T13:32:04.004Z,31.10
2019-03-29T13:34:52.261Z,30.83
2019-03-29T13:37:40.267Z,31.03
2019-03-29T13:40:28.725Z,31.13
2019-03-29T13:43:16.926Z,30.39
2019-03-29T13:46:05.007Z,30.68
2019-03-29T13:48:52.977Z,30.48
2019-03-29T13:51:41.036Z,29.94
2019-03-29T13:54:29.073Z,30.48
2019-03-29T13:57:17.402Z,30.33
2019-03-29T14:00:09.010Z,30.64
2019-03-29T14:02:57.035Z,30.93
2019-03-29T14:05:45.522Z,30.28
2019-03-29T14:08:33.466Z,30.33
2019-03-29T14:11:21.493Z,29.90
2019-03-29T14:14:10.881Z,30.03
2019-03-29T14:16:59.047Z,30.88
2019-03-29T14:19:47.615Z,29.83
2019-03-29T14:22:36.070Z,30.25
2019-03-29T14:25:23.821Z,29.32
2019-03-29T14:28:11.745Z,29.62
2019-03-29T14:30:59.751Z,29.23
2019-03-29T14:33:47.706Z,30.00
2019-03-29T14:36:35.299Z,29.48
2019-03-29T14:39:23.526Z,28.47
2019-03-29T14:42:12.833Z,29.01
2019-03-29T14:45:01.366Z,29.21
2019-03-29T14:47:49.539Z,28.80
2019-03-29T14:50:37.658Z,29.18
2019-03-29T14:53:25.560Z,29.21
2019-03-29T14:56:13.314Z,29.26
2019-03-29T14:59:01.705Z,28.79
2019-03-29T15:01:50.530Z,28.30
2019-03-29T15:04:38.633Z,28.52
2019-03-29T15:07:26.663Z,28.14
2019-03-29T15:10:26.144Z,28.74
2019-03-29T15:13:14.859Z,28.68
2019-03-29T15:16:02.433Z,28.16
2019-03-29T15:18:50.380Z,27.94
2019-03-29T15:21:38.714Z,27.92
2019-03-29T15:24:27.257Z,27.39
2019-03-29T15:27:15.405Z,27.59
2019-03-29T15:30:03.925Z,28.83
2019-03-29T15:32:52.246Z,29.18
2019-03-29T15:35:40.372Z,28.85
2019-03-29T15:38:28.546Z,28.67
2019-03-29T15:41:16.545Z,29.98
2019-03-29T15:44:04.877Z,28.64
2019-03-29T15:46:52.497Z,28.84
2019-03-29T15:49:40.821Z,29.05
2019-03-29T15:52:28.718Z,28.88
2019-03-29T15:55:16.801Z,28.42
2019-03-29T15:58:05.046Z,28.72
2019-03-29T16:00:53.074Z,29.34
2019-03-29T16:03:41.147Z,29.51
2019-03-29T16:06:29.388Z,28.43
2019-03-29T16:09:17.332Z,28.72
2019-03-29T16:12:05.556Z,28.93
2019-03-29T16:14:53.645Z,29.80
2019-03-29T16:17:41.534Z,29.23
2019-03-29T16:20:29.613Z,29.92
2019-03-29T16:23:17.666Z,29.88
2019-03-29T16:26:05.654Z,30.04
2019-03-29T16:28:53.529Z,29.26
2019-03-29T16:31:41.514Z,29.09
2019-03-29T16:34:30.002Z,29.49
2019-03-29T16:37:18.527Z,29.64
2019-03-29T16:40:06.691Z,30.48
2019-03-29T16:42:54.642Z,30.44
2019-03-29T16:45:48.040Z,30.67
2019-03-29T16:48:32.486Z,30.86
2019-03-29T16:51:20.351Z,30.33
2019-03-29T16:54:08.606Z,30.99
2019-03-29T16:56:56.923Z,30.89
2019-03-29T16:59:45.177Z,31.42
2019-03-29T17:02:33.308Z,31.13
2019-03-29T17:05:21.489Z,31.66
2019-03-29T17:08:09.687Z,31.62
2019-03-29T17:10:57.769Z,32.06
2019-03-29T17:13:45.985Z,32.41
2019-03-29T17:16:34.072Z,32.61
2019-03-29T17:19:21.683Z,32.34
2019-03-29T17:22:09.633Z,32.52
2019-03-29T17:24:57.939Z,32.79
2019-03-29T17:27:45.772Z,33.23
2019-03-29T17:30:42.102Z,33.33
2019-03-29T17:33:30.347Z,33.44
2019-03-29T17:36:18.637Z,33.81
2019-03-29T17:39:08.110Z,33.74
2019-03-29T17:41:56.151Z,34.20
2019-03-29T17:44:44.605Z,34.76
2019-03-29T17:47:33.021Z,34.61
2019-03-29T17:50:21.510Z,34.79
2019-03-29T17:53:10.196Z,35.40
2019-03-29T17:55:58.405Z,35.10
2019-03-29T17:58:46.662Z,35.09
2019-03-29T18:01:34.765Z,35.79
2019-03-29T18:04:23.636Z,36.19
2019-03-29T18:07:11.577Z,36.02
2019-03-29T18:10:00.842Z,36.28
2019-03-29T18:12:48.838Z,36.38
2019-03-29T18:15:44.468Z,36.70
2019-03-29T18:18:32.726Z,36.23
2019-03-29T18:21:20.782Z,36.86
2019-03-29T18:24:08.683Z,37.18
2019-03-29T18:26:56.697Z,37.00
2019-03-29T18:29:44.583Z,36.87
2019-03-29T18:32:32.943Z,36.41
2019-03-29T18:35:21.245Z,36.41
2019-03-29T18:38:09.857Z,36.43
2019-03-29T18:40:57.879Z,36.68
2019-03-29T18:43:46.117Z,36.42
2019-03-29T18:46:44.535Z,36.56
2019-03-29T18:49:23.685Z,36.38
2019-03-29T18:52:11.513Z,35.95
2019-03-29T18:54:59.445Z,35.88
2019-03-29T18:57:47.441Z,35.53
2019-03-29T19:00:36.383Z,35.58
2019-03-29T19:03:24.227Z,35.83
2019-03-29T19:06:13.067Z,35.87
2019-03-29T19:09:01.381Z,36.12
2019-03-29T19:11:49.767Z,35.97
2019-03-29T19:14:37.454Z,36.04
2019-03-29T19:17:25.711Z,36.12
2019-03-29T19:20:26.687Z,36.25
2019-03-29T19:23:04.250Z,36.33
2019-03-29T19:25:52.237Z,36.15
2019-03-29T19:28:40.424Z,36.11
2019-03-29T19:31:29.121Z,36.30
2019-03-29T19:34:17.285Z,36.28
2019-03-29T19:37:05.394Z,36.98
2019-03-29T19:39:53.491Z,36.58
2019-03-29T19:42:41.727Z,36.85
2019-03-29T19:45:30.191Z,36.61
2019-03-29T19:48:18.224Z,36.70
2019-03-29T19:51:05.835Z,36.09
2019-03-29T19:54:06.697Z,35.93
2019-03-29T19:56:43.737Z,36.15
2019-03-29T19:59:31.594Z,36.23
2019-03-29T20:02:19.454Z,36.38
2019-03-29T20:05:13.351Z,36.55
2019-03-29T20:08:01.922Z,36.56
2019-03-29T20:10:49.982Z,36.55
2019-03-29T20:13:37.666Z,36.57
2019-03-29T20:16:25.354Z,36.58
2019-03-29T20:19:13.231Z,37.02
2019-03-29T20:22:01.641Z,37.17
2019-03-29T20:24:50.344Z,37.35
2019-03-29T20:27:38.068Z,37.63
2019-03-29T20:30:26.568Z,38.84
2019-03-29T20:33:14.716Z,39.37
2019-03-29T20:36:02.696Z,39.93
2019-03-29T20:38:50.635Z,40.43
2019-03-29T20:41:38.873Z,40.92
2019-03-29T20:44:26.936Z,40.81
2019-03-29T20:47:14.822Z,40.97
2019-03-29T20:50:02.817Z,41.44
2019-03-29T20:52:51.081Z,41.50
2019-03-29T20:55:39.455Z,41.60
2019-03-29T20:58:27.421Z,41.57
2019-03-29T21:01:15.575Z,41.49
2019-03-29T21:04:03.675Z,41.62
2019-03-29T21:06:51.687Z,41.85
2019-03-29T21:09:39.698Z,42.17
2019-03-29T21:12:27.591Z,42.33
2019-03-29T21:15:15.612Z,42.69
2019-03-29T21:18:03.511Z,42.65
2019-03-29T21:20:51.756Z,42.86
2019-03-29T21:23:39.406Z,43.40
2019-03-29T21:26:27.631Z,43.40
2019-03-29T21:29:16.012Z,43.74
2019-03-29T21:32:04.056Z,44.11
2019-03-29T21:34:51.971Z,43.99
2019-03-29T21:37:39.898Z,44.18
2019-03-29T21:40:27.857Z,44.01
2019-03-29T21:43:17.865Z,44.09
2019-03-29T21:46:06.009Z,44.41
2019-03-29T21:48:54.074Z,44.81
2019-03-29T21:51:41.879Z,45.17
2019-03-29T21:54:30.537Z,45.24
2019-03-29T21:57:19.284Z,45.31
2019-03-29T22:00:08.936Z,45.21
2019-03-29T22:02:59.856Z,45.21
2019-03-29T22:05:48.038Z,44.97
2019-03-29T22:08:36.690Z,45.24
2019-03-29T22:11:25.337Z,45.02
2019-03-29T22:14:13.207Z,45.13
2019-03-29T22:17:01.104Z,45.76
2019-03-29T22:19:48.907Z,45.61
2019-03-29T22:22:38.221Z,45.69
2019-03-29T22:25:26.558Z,46.86
2019-03-29T22:28:15.438Z,46.04
2019-03-29T22:31:03.556Z,46.28
2019-03-29T22:33:51.834Z,45.58
2019-03-29T22:36:40.286Z,46.19
2019-03-29T22:39:28.530Z,46.35
2019-03-29T22:42:16.399Z,46.83
2019-03-29T22:45:04.726Z,47.22
2019-03-29T22:47:52.599Z,47.57
2019-03-29T22:50:40.902Z,47.52
2019-03-29T22:53:36.395Z,47.71
2019-03-29T22:56:24.569Z,47.75
2019-03-29T22:59:19.435Z,47.63
2019-03-29T23:02:11.184Z,47.70
2019-03-29T23:05:04.230Z,48.00
2019-03-29T23:07:52.344Z,47.68
2019-03-29T23:10:40.302Z,47.49
2019-03-29T23:13:28.229Z,47.49
2019-03-29T23:16:16.538Z,47.60
2019-03-29T23:19:06.822Z,47.94
2019-03-29T23:21:54.304Z,47.70
2019-03-29T23:24:42.535Z,47.86
2019-03-29T23:27:30.102Z,47.37
2019-03-29T23:30:18.684Z,47.47
2019-03-29T23:33:06.903Z,47.12
2019-03-29T23:35:54.766Z,47.10
2019-03-29T23:38:42.835Z,47.22
2019-03-29T23:41:31.081Z,47.30
2019-03-29T23:44:19.182Z,47.57
2019-03-29T23:47:07.174Z,47.79
2019-03-29T23:49:55.402Z,48.03
2019-03-29T23:52:43.498Z,48.59
2019-03-29T23:55:31.707Z,49.88
2019-03-29T23:58:19.921Z,50.42
